sensor_id;sensor_type;location;lat;lon;timestamp;temperature;humidity
7331;DHT22;3706;49.198;7.064;2023-10-08T00:01:42;9.90;99.90
7331;DHT22;3706;49.198;7.064;2023-10-08T00:04:10;9.90;99.90
7331;DHT22;3706;49.198;7.064;2023-10-08T00:06:37;9.90;99.90
7331;DHT22;3706;49.198;7.064;2023-10-08T00:09:04;9.90;99.90
7331;DHT22;3706;49.198;7.064;2023-10-08T00:11:36;9.90;99.90
7331;DHT22;3706;49.198;7.064;2023-10-08T00:14:03;9.80;99.90
7331;DHT22;3706;49.198;7.064;2023-10-08T00:16:34;9.80;99.90
7331;DHT22;3706;49.198;7.064;2023-10-08T00:19:05;9.80;99.90
7331;DHT22;3706;49.198;7.064;2023-10-08T00:21:37;9.80;99.90
7331;DHT22;3706;49.198;7.064;2023-10-08T00:24:04;9.80;99.90
7331;DHT22;3706;49.198;7.064;2023-10-08T00:26:33;9.80;99.90
7331;DHT22;3706;49.198;7.064;2023-10-08T00:29:08;9.90;99.90
7331;DHT22;3706;49.198;7.064;2023-10-08T00:31:42;9.80;99.90
7331;DHT22;3706;49.198;7.064;2023-10-08T00:34:11;9.90;99.90
7331;DHT22;3706;49.198;7.064;2023-10-08T00:36:39;9.90;99.90
7331;DHT22;3706;49.198;7.064;2023-10-08T00:39:07;9.90;99.90
7331;DHT22;3706;49.198;7.064;2023-10-08T00:41:40;9.90;99.90
7331;DHT22;3706;49.198;7.064;2023-10-08T00:44:10;9.80;99.90
7331;DHT22;3706;49.198;7.064;2023-10-08T00:46:42;9.80;99.90
7331;DHT22;3706;49.198;7.064;2023-10-08T00:49:13;9.80;99.90
7331;DHT22;3706;49.198;7.064;2023-10-08T00:51:51;9.70;99.90
7331;DHT22;3706;49.198;7.064;2023-10-08T00:54:36;9.70;99.90
7331;DHT22;3706;49.198;7.064;2023-10-08T00:57:22;9.60;99.90
7331;DHT22;3706;49.198;7.064;2023-10-08T00:59:51;9.60;99.90
7331;DHT22;3706;49.198;7.064;2023-10-08T01:02:19;9.60;99.90
7331;DHT22;3706;49.198;7.064;2023-10-08T01:04:50;9.60;99.90
7331;DHT22;3706;49.198;7.064;2023-10-08T01:07:18;9.70;99.90
7331;DHT22;3706;49.198;7.064;2023-10-08T01:09:45;9.70;99.90
7331;DHT22;3706;49.198;7.064;2023-10-08T01:12:18;9.70;99.90
7331;DHT22;3706;49.198;7.064;2023-10-08T01:14:48;9.70;99.90
7331;DHT22;3706;49.198;7.064;2023-10-08T01:17:21;9.80;99.90
7331;DHT22;3706;49.198;7.064;2023-10-08T01:19:51;9.80;99.90
7331;DHT22;3706;49.198;7.064;2023-10-08T01:22:23;9.80;99.90
7331;DHT22;3706;49.198;7.064;2023-10-08T01:24:54;9.80;99.90
7331;DHT22;3706;49.198;7.064;2023-10-08T01:27:21;9.80;99.90
7331;DHT22;3706;49.198;7.064;2023-10-08T01:29:50;9.70;99.90
7331;DHT22;3706;49.198;7.064;2023-10-08T01:32:18;9.60;99.90
7331;DHT22;3706;49.198;7.064;2023-10-08T01:34:46;9.60;99.90
7331;DHT22;3706;49.198;7.064;2023-10-08T01:37:14;9.60;99.90
7331;DHT22;3706;49.198;7.064;2023-10-08T01:39:45;9.60;99.90
7331;DHT22;3706;49.198;7.064;2023-10-08T01:42:12;9.60;99.90
7331;DHT22;3706;49.198;7.064;2023-10-08T01:44:44;9.60;99.90
7331;DHT22;3706;49.198;7.064;2023-10-08T01:47:14;9.60;99.90
7331;DHT22;3706;49.198;7.064;2023-10-08T01:49:42;9.60;99.90
7331;DHT22;3706;49.198;7.064;2023-10-08T01:52:10;9.60;99.90
7331;DHT22;3706;49.198;7.064;2023-10-08T01:54:44;9.50;99.90
7331;DHT22;3706;49.198;7.064;2023-10-08T01:57:11;9.40;99.90
7331;DHT22;3706;49.198;7.064;2023-10-08T01:59:40;9.20;99.90
7331;DHT22;3706;49.198;7.064;2023-10-08T02:02:08;9.10;99.90
7331;DHT22;3706;49.198;7.064;2023-10-08T02:04:35;9.00;99.90
7331;DHT22;3706;49.198;7.064;2023-10-08T02:07:02;8.90;99.90
7331;DHT22;3706;49.198;7.064;2023-10-08T02:09:33;8.80;99.90
7331;DHT22;3706;49.198;7.064;2023-10-08T02:12:02;8.80;99.90
7331;DHT22;3706;49.198;7.064;2023-10-08T02:14:29;8.80;99.90
7331;DHT22;3706;49.198;7.064;2023-10-08T02:16:57;8.70;99.90
7331;DHT22;3706;49.198;7.064;2023-10-08T02:19:27;8.70;99.90
7331;DHT22;3706;49.198;7.064;2023-10-08T02:21:54;8.70;99.90
7331;DHT22;3706;49.198;7.064;2023-10-08T02:24:22;8.70;99.90
7331;DHT22;3706;49.198;7.064;2023-10-08T02:26:50;8.70;99.90
7331;DHT22;3706;49.198;7.064;2023-10-08T02:29:20;8.70;99.90
7331;DHT22;3706;49.198;7.064;2023-10-08T02:31:47;8.70;99.90
7331;DHT22;3706;49.198;7.064;2023-10-08T02:34:14;8.60;99.90
7331;DHT22;3706;49.198;7.064;2023-10-08T02:36:41;8.60;99.90
7331;DHT22;3706;49.198;7.064;2023-10-08T02:39:09;8.70;99.90
7331;DHT22;3706;49.198;7.064;2023-10-08T02:41:48;8.60;99.90
7331;DHT22;3706;49.198;7.064;2023-10-08T02:44:16;8.70;99.90
7331;DHT22;3706;49.198;7.064;2023-10-08T02:46:45;8.60;99.90
7331;DHT22;3706;49.198;7.064;2023-10-08T02:49:14;8.60;99.90
7331;DHT22;3706;49.198;7.064;2023-10-08T02:51:46;8.70;99.90
7331;DHT22;3706;49.198;7.064;2023-10-08T02:54:15;8.80;99.90
7331;DHT22;3706;49.198;7.064;2023-10-08T02:56:44;8.80;99.90
7331;DHT22;3706;49.198;7.064;2023-10-08T02:59:12;8.70;99.90
7331;DHT22;3706;49.198;7.064;2023-10-08T03:01:40;8.60;99.90
7331;DHT22;3706;49.198;7.064;2023-10-08T03:04:10;8.60;99.90
7331;DHT22;3706;49.198;7.064;2023-10-08T03:06:44;8.70;99.90
7331;DHT22;3706;49.198;7.064;2023-10-08T03:09:15;8.70;99.90
7331;DHT22;3706;49.198;7.064;2023-10-08T03:11:47;8.70;99.90
7331;DHT22;3706;49.198;7.064;2023-10-08T03:14:14;8.70;99.90
7331;DHT22;3706;49.198;7.064;2023-10-08T03:16:48;8.70;99.90
7331;DHT22;3706;49.198;7.064;2023-10-08T03:19:17;8.70;99.90
7331;DHT22;3706;49.198;7.064;2023-10-08T03:21:46;8.60;99.90
7331;DHT22;3706;49.198;7.064;2023-10-08T03:24:17;8.60;99.90
7331;DHT22;3706;49.198;7.064;2023-10-08T03:27:03;8.70;99.90
7331;DHT22;3706;49.198;7.064;2023-10-08T03:29:38;8.70;99.90
7331;DHT22;3706;49.198;7.064;2023-10-08T03:32:08;8.70;99.90
7331;DHT22;3706;49.198;7.064;2023-10-08T03:34:43;8.80;99.90
7331;DHT22;3706;49.198;7.064;2023-10-08T03:37:12;8.90;99.90
7331;DHT22;3706;49.198;7.064;2023-10-08T03:39:46;8.90;99.90
7331;DHT22;3706;49.198;7.064;2023-10-08T03:42:26;8.90;99.90
7331;DHT22;3706;49.198;7.064;2023-10-08T03:45:07;9.00;99.90
7331;DHT22;3706;49.198;7.064;2023-10-08T03:47:38;9.00;99.90
7331;DHT22;3706;49.198;7.064;2023-10-08T03:50:13;9.00;99.90
7331;DHT22;3706;49.198;7.064;2023-10-08T03:52:43;9.00;99.90
7331;DHT22;3706;49.198;7.064;2023-10-08T03:55:10;9.00;99.90
7331;DHT22;3706;49.198;7.064;2023-10-08T03:57:52;8.90;99.90
7331;DHT22;3706;49.198;7.064;2023-10-08T04:00:23;8.90;99.90
7331;DHT22;3706;49.198;7.064;2023-10-08T04:02:57;8.80;99.90
7331;DHT22;3706;49.198;7.064;2023-10-08T04:05:35;8.80;99.90
7331;DHT22;3706;49.198;7.064;2023-10-08T04:08:10;8.90;99.90
7331;DHT22;3706;49.198;7.064;2023-10-08T04:10:50;8.90;99.90
7331;DHT22;3706;49.198;7.064;2023-10-08T04:13:31;8.90;99.90
7331;DHT22;3706;49.198;7.064;2023-10-08T04:15:58;8.80;99.90
7331;DHT22;3706;49.198;7.064;2023-10-08T04:18:25;8.70;99.90
7331;DHT22;3706;49.198;7.064;2023-10-08T04:20:54;8.60;99.90
7331;DHT22;3706;49.198;7.064;2023-10-08T04:23:30;8.60;99.90
7331;DHT22;3706;49.198;7.064;2023-10-08T04:25:57;8.50;99.90
7331;DHT22;3706;49.198;7.064;2023-10-08T04:28:24;8.60;99.90
7331;DHT22;3706;49.198;7.064;2023-10-08T04:30:54;8.70;99.90
7331;DHT22;3706;49.198;7.064;2023-10-08T04:33:27;8.70;99.90
7331;DHT22;3706;49.198;7.064;2023-10-08T04:36:00;8.70;99.90
7331;DHT22;3706;49.198;7.064;2023-10-08T04:38:28;8.60;99.90
7331;DHT22;3706;49.198;7.064;2023-10-08T04:41:02;8.50;99.90
7331;DHT22;3706;49.198;7.064;2023-10-08T04:43:35;8.40;99.90
7331;DHT22;3706;49.198;7.064;2023-10-08T04:46:03;8.40;99.90
7331;DHT22;3706;49.198;7.064;2023-10-08T04:48:45;8.30;99.90
7331;DHT22;3706;49.198;7.064;2023-10-08T04:51:13;8.30;99.90
7331;DHT22;3706;49.198;7.064;2023-10-08T04:53:41;8.30;99.90
7331;DHT22;3706;49.198;7.064;2023-10-08T04:56:11;8.30;99.90
7331;DHT22;3706;49.198;7.064;2023-10-08T04:58:42;8.30;99.90
7331;DHT22;3706;49.198;7.064;2023-10-08T05:01:12;8.30;99.90
7331;DHT22;3706;49.198;7.064;2023-10-08T05:03:54;8.30;99.90
7331;DHT22;3706;49.198;7.064;2023-10-08T05:06:35;8.40;99.90
7331;DHT22;3706;49.198;7.064;2023-10-08T05:09:26;8.50;99.90
7331;DHT22;3706;49.198;7.064;2023-10-08T05:12:06;8.50;99.90
7331;DHT22;3706;49.198;7.064;2023-10-08T05:14:54;8.60;99.90
7331;DHT22;3706;49.198;7.064;2023-10-08T05:17:48;8.50;99.90
7331;DHT22;3706;49.198;7.064;2023-10-08T05:20:35;8.50;99.90
7331;DHT22;3706;49.198;7.064;2023-10-08T05:23:24;8.40;99.90
7331;DHT22;3706;49.198;7.064;2023-10-08T05:26:05;8.30;99.90
7331;DHT22;3706;49.198;7.064;2023-10-08T05:28:46;8.30;99.90
7331;DHT22;3706;49.198;7.064;2023-10-08T05:31:26;8.30;99.90
7331;DHT22;3706;49.198;7.064;2023-10-08T05:34:13;8.30;99.90
7331;DHT22;3706;49.198;7.064;2023-10-08T05:36:48;8.40;99.90
7331;DHT22;3706;49.198;7.064;2023-10-08T05:39:32;8.50;99.90
7331;DHT22;3706;49.198;7.064;2023-10-08T05:42:06;8.40;99.90
7331;DHT22;3706;49.198;7.064;2023-10-08T05:44:39;8.30;99.90
7331;DHT22;3706;49.198;7.064;2023-10-08T05:47:11;8.20;99.90
7331;DHT22;3706;49.198;7.064;2023-10-08T05:50:06;8.10;99.90
7331;DHT22;3706;49.198;7.064;2023-10-08T05:52:50;8.00;99.90
7331;DHT22;3706;49.198;7.064;2023-10-08T05:55:31;8.00;99.90
7331;DHT22;3706;49.198;7.064;2023-10-08T05:58:03;8.10;99.90
7331;DHT22;3706;49.198;7.064;2023-10-08T06:00:39;8.20;99.90
7331;DHT22;3706;49.198;7.064;2023-10-08T06:03:13;8.30;99.90
7331;DHT22;3706;49.198;7.064;2023-10-08T06:06:04;8.40;99.90
7331;DHT22;3706;49.198;7.064;2023-10-08T06:09:02;8.60;99.90
7331;DHT22;3706;49.198;7.064;2023-10-08T06:11:45;8.80;99.90
7331;DHT22;3706;49.198;7.064;2023-10-08T06:14:22;8.90;99.90
7331;DHT22;3706;49.198;7.064;2023-10-08T06:17:02;9.10;99.90
7331;DHT22;3706;49.198;7.064;2023-10-08T06:19:39;9.20;99.90
7331;DHT22;3706;49.198;7.064;2023-10-08T06:22:07;9.40;99.90
7331;DHT22;3706;49.198;7.064;2023-10-08T06:24:34;9.50;99.90
7331;DHT22;3706;49.198;7.064;2023-10-08T06:27:04;9.70;99.90
7331;DHT22;3706;49.198;7.064;2023-10-08T06:29:32;9.90;99.90
7331;DHT22;3706;49.198;7.064;2023-10-08T06:31:59;10.00;99.90
7331;DHT22;3706;49.198;7.064;2023-10-08T06:34:28;10.20;99.90
7331;DHT22;3706;49.198;7.064;2023-10-08T06:36:57;10.40;99.90
7331;DHT22;3706;49.198;7.064;2023-10-08T06:39:25;10.60;99.90
7331;DHT22;3706;49.198;7.064;2023-10-08T06:41:59;10.90;99.90
7331;DHT22;3706;49.198;7.064;2023-10-08T06:44:26;11.40;99.90
7331;DHT22;3706;49.198;7.064;2023-10-08T06:46:53;11.90;99.90
7331;DHT22;3706;49.198;7.064;2023-10-08T06:49:22;12.30;99.90
7331;DHT22;3706;49.198;7.064;2023-10-08T06:51:51;12.80;99.90
7331;DHT22;3706;49.198;7.064;2023-10-08T06:54:19;13.20;99.90
7331;DHT22;3706;49.198;7.064;2023-10-08T06:56:49;13.80;99.90
7331;DHT22;3706;49.198;7.064;2023-10-08T06:59:18;14.30;99.90
7331;DHT22;3706;49.198;7.064;2023-10-08T07:01:48;14.90;99.90
7331;DHT22;3706;49.198;7.064;2023-10-08T07:04:17;15.30;99.90
7331;DHT22;3706;49.198;7.064;2023-10-08T07:06:45;15.90;99.90
7331;DHT22;3706;49.198;7.064;2023-10-08T07:09:13;16.40;99.90
7331;DHT22;3706;49.198;7.064;2023-10-08T07:11:49;16.90;99.90
7331;DHT22;3706;49.198;7.064;2023-10-08T07:14:21;17.40;99.90
7331;DHT22;3706;49.198;7.064;2023-10-08T07:16:52;17.90;99.90
7331;DHT22;3706;49.198;7.064;2023-10-08T07:19:20;18.40;99.90
7331;DHT22;3706;49.198;7.064;2023-10-08T07:21:49;18.90;99.90
7331;DHT22;3706;49.198;7.064;2023-10-08T07:24:20;19.40;99.90
7331;DHT22;3706;49.198;7.064;2023-10-08T07:26:49;19.90;99.90
7331;DHT22;3706;49.198;7.064;2023-10-08T07:29:21;20.20;99.90
7331;DHT22;3706;49.198;7.064;2023-10-08T07:31:50;20.50;99.90
7331;DHT22;3706;49.198;7.064;2023-10-08T07:34:18;20.60;99.90
7331;DHT22;3706;49.198;7.064;2023-10-08T07:36:52;20.70;99.90
7331;DHT22;3706;49.198;7.064;2023-10-08T07:39:21;20.70;99.90
7331;DHT22;3706;49.198;7.064;2023-10-08T07:42:04;20.80;99.90
7331;DHT22;3706;49.198;7.064;2023-10-08T07:44:33;21.10;99.90
7331;DHT22;3706;49.198;7.064;2023-10-08T07:47:02;21.50;99.90
7331;DHT22;3706;49.198;7.064;2023-10-08T07:49:31;21.90;99.90
7331;DHT22;3706;49.198;7.064;2023-10-08T07:51:58;22.30;99.90
7331;DHT22;3706;49.198;7.064;2023-10-08T07:54:26;22.80;99.90
7331;DHT22;3706;49.198;7.064;2023-10-08T07:56:54;23.30;99.90
7331;DHT22;3706;49.198;7.064;2023-10-08T07:59:26;23.50;99.90
7331;DHT22;3706;49.198;7.064;2023-10-08T08:01:53;23.80;99.90
7331;DHT22;3706;49.198;7.064;2023-10-08T08:04:20;23.90;99.90
7331;DHT22;3706;49.198;7.064;2023-10-08T08:06:48;24.10;99.60
7331;DHT22;3706;49.198;7.064;2023-10-08T08:09:17;24.00;99.30
7331;DHT22;3706;49.198;7.064;2023-10-08T08:11:45;24.00;99.10
7331;DHT22;3706;49.198;7.064;2023-10-08T08:14:14;24.10;99.10
7331;DHT22;3706;49.198;7.064;2023-10-08T08:16:44;24.20;98.70
7331;DHT22;3706;49.198;7.064;2023-10-08T08:19:14;24.10;98.50
7331;DHT22;3706;49.198;7.064;2023-10-08T08:21:43;24.20;98.40
7331;DHT22;3706;49.198;7.064;2023-10-08T08:24:12;24.50;98.10
7331;DHT22;3706;49.198;7.064;2023-10-08T08:26:39;24.80;97.20
7331;DHT22;3706;49.198;7.064;2023-10-08T08:29:16;24.80;96.80
7331;DHT22;3706;49.198;7.064;2023-10-08T08:31:44;25.10;96.30
7331;DHT22;3706;49.198;7.064;2023-10-08T08:34:12;25.10;95.60
7331;DHT22;3706;49.198;7.064;2023-10-08T08:36:45;24.60;96.40
7331;DHT22;3706;49.198;7.064;2023-10-08T08:39:15;24.20;96.20
7331;DHT22;3706;49.198;7.064;2023-10-08T08:41:59;23.90;96.70
7331;DHT22;3706;49.198;7.064;2023-10-08T08:44:31;23.80;96.70
7331;DHT22;3706;49.198;7.064;2023-10-08T08:47:01;23.50;97.10
7331;DHT22;3706;49.198;7.064;2023-10-08T08:49:33;23.60;97.50
7331;DHT22;3706;49.198;7.064;2023-10-08T08:52:03;23.80;96.80
7331;DHT22;3706;49.198;7.064;2023-10-08T08:54:30;23.90;96.70
7331;DHT22;3706;49.198;7.064;2023-10-08T08:57:00;24.20;97.00
7331;DHT22;3706;49.198;7.064;2023-10-08T08:59:30;24.50;96.50
7331;DHT22;3706;49.198;7.064;2023-10-08T09:01:59;24.70;95.80
7331;DHT22;3706;49.198;7.064;2023-10-08T09:04:29;24.70;95.50
7331;DHT22;3706;49.198;7.064;2023-10-08T09:06:59;24.70;95.30
7331;DHT22;3706;49.198;7.064;2023-10-08T09:09:31;24.70;95.50
7331;DHT22;3706;49.198;7.064;2023-10-08T09:11:59;24.90;95.60
7331;DHT22;3706;49.198;7.064;2023-10-08T09:14:26;24.80;95.00
7331;DHT22;3706;49.198;7.064;2023-10-08T09:16:56;24.60;95.20
7331;DHT22;3706;49.198;7.064;2023-10-08T09:19:25;24.40;95.00
7331;DHT22;3706;49.198;7.064;2023-10-08T09:22:02;24.30;95.30
7331;DHT22;3706;49.198;7.064;2023-10-08T09:24:31;24.20;95.60
7331;DHT22;3706;49.198;7.064;2023-10-08T09:26:59;24.20;95.60
7331;DHT22;3706;49.198;7.064;2023-10-08T09:29:27;24.30;95.60
7331;DHT22;3706;49.198;7.064;2023-10-08T09:31:56;24.10;95.70
7331;DHT22;3706;49.198;7.064;2023-10-08T09:34:28;23.90;96.00
7331;DHT22;3706;49.198;7.064;2023-10-08T09:36:56;24.00;96.40
7331;DHT22;3706;49.198;7.064;2023-10-08T09:39:26;24.20;96.40
7331;DHT22;3706;49.198;7.064;2023-10-08T09:41:54;24.40;95.30
7331;DHT22;3706;49.198;7.064;2023-10-08T09:44:22;24.30;95.40
7331;DHT22;3706;49.198;7.064;2023-10-08T09:46:53;24.20;95.60
7331;DHT22;3706;49.198;7.064;2023-10-08T09:49:29;24.20;95.70
7331;DHT22;3706;49.198;7.064;2023-10-08T09:52:00;24.30;95.60
7331;DHT22;3706;49.198;7.064;2023-10-08T09:54:29;24.30;95.20
7331;DHT22;3706;49.198;7.064;2023-10-08T09:56:59;24.40;95.50
7331;DHT22;3706;49.198;7.064;2023-10-08T09:59:27;24.40;95.70
7331;DHT22;3706;49.198;7.064;2023-10-08T10:01:55;24.60;95.80
7331;DHT22;3706;49.198;7.064;2023-10-08T10:04:25;25.00;95.20
7331;DHT22;3706;49.198;7.064;2023-10-08T10:06:55;25.30;94.80
7331;DHT22;3706;49.198;7.064;2023-10-08T10:09:25;25.70;94.30
7331;DHT22;3706;49.198;7.064;2023-10-08T10:11:54;25.60;94.00
7331;DHT22;3706;49.198;7.064;2023-10-08T10:14:23;25.70;93.60
7331;DHT22;3706;49.198;7.064;2023-10-08T10:17:08;25.60;93.90
7331;DHT22;3706;49.198;7.064;2023-10-08T10:19:36;25.70;93.80
7331;DHT22;3706;49.198;7.064;2023-10-08T10:22:10;26.00;93.50
7331;DHT22;3706;49.198;7.064;2023-10-08T10:24:38;26.10;92.80
7331;DHT22;3706;49.198;7.064;2023-10-08T10:27:11;26.10;92.80
7331;DHT22;3706;49.198;7.064;2023-10-08T10:29:40;26.00;92.60
7331;DHT22;3706;49.198;7.064;2023-10-08T10:32:10;26.10;92.70
7331;DHT22;3706;49.198;7.064;2023-10-08T10:34:39;26.30;92.90
7331;DHT22;3706;49.198;7.064;2023-10-08T10:37:08;26.50;92.60
7331;DHT22;3706;49.198;7.064;2023-10-08T10:39:52;26.70;92.10
7331;DHT22;3706;49.198;7.064;2023-10-08T10:42:21;26.80;91.50
7331;DHT22;3706;49.198;7.064;2023-10-08T10:44:49;26.80;91.20
7331;DHT22;3706;49.198;7.064;2023-10-08T10:47:18;26.80;91.20
7331;DHT22;3706;49.198;7.064;2023-10-08T10:50:08;26.80;91.30
7331;DHT22;3706;49.198;7.064;2023-10-08T10:52:57;26.70;91.10
7331;DHT22;3706;49.198;7.064;2023-10-08T10:55:24;26.40;91.40
7331;DHT22;3706;49.198;7.064;2023-10-08T10:57:57;26.30;91.80
7331;DHT22;3706;49.198;7.064;2023-10-08T11:00:31;26.50;92.20
7331;DHT22;3706;49.198;7.064;2023-10-08T11:03:22;26.80;91.50
7331;DHT22;3706;49.198;7.064;2023-10-08T11:05:56;27.10;91.10
7331;DHT22;3706;49.198;7.064;2023-10-08T11:08:27;27.60;91.00
7331;DHT22;3706;49.198;7.064;2023-10-08T11:11:00;28.00;90.10
7331;DHT22;3706;49.198;7.064;2023-10-08T11:13:32;28.10;88.50
7331;DHT22;3706;49.198;7.064;2023-10-08T11:16:04;28.10;88.70
7331;DHT22;3706;49.198;7.064;2023-10-08T11:18:31;28.00;88.70
7331;DHT22;3706;49.198;7.064;2023-10-08T11:21:06;28.00;88.70
7331;DHT22;3706;49.198;7.064;2023-10-08T11:23:45;28.10;87.50
7331;DHT22;3706;49.198;7.064;2023-10-08T11:26:22;28.20;87.20
7331;DHT22;3706;49.198;7.064;2023-10-08T11:28:57;28.30;85.50
7331;DHT22;3706;49.198;7.064;2023-10-08T11:31:27;27.90;85.90
7331;DHT22;3706;49.198;7.064;2023-10-08T11:34:00;27.60;87.00
7331;DHT22;3706;49.198;7.064;2023-10-08T11:36:28;27.60;88.00
7331;DHT22;3706;49.198;7.064;2023-10-08T11:39:09;27.70;87.50
7331;DHT22;3706;49.198;7.064;2023-10-08T11:41:39;27.90;87.20
7331;DHT22;3706;49.198;7.064;2023-10-08T11:44:15;28.20;85.60
7331;DHT22;3706;49.198;7.064;2023-10-08T11:46:45;28.20;84.60
7331;DHT22;3706;49.198;7.064;2023-10-08T11:49:17;28.20;85.20
7331;DHT22;3706;49.198;7.064;2023-10-08T11:51:45;28.40;85.40
7331;DHT22;3706;49.198;7.064;2023-10-08T11:54:13;28.50;85.00
7331;DHT22;3706;49.198;7.064;2023-10-08T11:56:40;28.70;85.10
7331;DHT22;3706;49.198;7.064;2023-10-08T11:59:07;28.90;82.80
7331;DHT22;3706;49.198;7.064;2023-10-08T12:01:35;28.80;81.90
7331;DHT22;3706;49.198;7.064;2023-10-08T12:04:03;28.50;82.60
7331;DHT22;3706;49.198;7.064;2023-10-08T12:06:38;28.30;83.20
7331;DHT22;3706;49.198;7.064;2023-10-08T12:09:05;28.20;83.80
7331;DHT22;3706;49.198;7.064;2023-10-08T12:11:39;28.40;82.50
7331;DHT22;3706;49.198;7.064;2023-10-08T12:14:06;28.70;82.10
7331;DHT22;3706;49.198;7.064;2023-10-08T12:16:34;28.90;82.50
7331;DHT22;3706;49.198;7.064;2023-10-08T12:19:02;29.00;80.80
7331;DHT22;3706;49.198;7.064;2023-10-08T12:21:41;29.10;81.30
7331;DHT22;3706;49.198;7.064;2023-10-08T12:24:11;29.50;81.50
7331;DHT22;3706;49.198;7.064;2023-10-08T12:26:40;29.60;78.50
7331;DHT22;3706;49.198;7.064;2023-10-08T12:29:11;29.50;78.30
7331;DHT22;3706;49.198;7.064;2023-10-08T12:31:39;29.50;78.90
7331;DHT22;3706;49.198;7.064;2023-10-08T12:34:06;29.40;79.00
7331;DHT22;3706;49.198;7.064;2023-10-08T12:36:37;29.40;79.90
7331;DHT22;3706;49.198;7.064;2023-10-08T12:39:04;29.50;79.50
7331;DHT22;3706;49.198;7.064;2023-10-08T12:41:41;29.60;79.70
7331;DHT22;3706;49.198;7.064;2023-10-08T12:44:09;29.70;78.00
7331;DHT22;3706;49.198;7.064;2023-10-08T12:46:36;29.70;77.60
7331;DHT22;3706;49.198;7.064;2023-10-08T12:49:03;29.70;78.50
7331;DHT22;3706;49.198;7.064;2023-10-08T12:51:30;29.50;78.20
7331;DHT22;3706;49.198;7.064;2023-10-08T12:53:59;29.50;78.90
7331;DHT22;3706;49.198;7.064;2023-10-08T12:56:32;29.50;78.30
7331;DHT22;3706;49.198;7.064;2023-10-08T12:59:02;29.50;77.10
7331;DHT22;3706;49.198;7.064;2023-10-08T13:01:32;29.40;78.20
7331;DHT22;3706;49.198;7.064;2023-10-08T13:04:01;29.30;78.20
7331;DHT22;3706;49.198;7.064;2023-10-08T13:06:33;29.20;77.70
7331;DHT22;3706;49.198;7.064;2023-10-08T13:09:03;29.10;78.20
7331;DHT22;3706;49.198;7.064;2023-10-08T13:11:38;28.90;77.70
7331;DHT22;3706;49.198;7.064;2023-10-08T13:14:06;28.90;79.40
7331;DHT22;3706;49.198;7.064;2023-10-08T13:16:34;29.00;80.00
7331;DHT22;3706;49.198;7.064;2023-10-08T13:19:03;28.90;79.70
7331;DHT22;3706;49.198;7.064;2023-10-08T13:21:30;28.80;79.50
7331;DHT22;3706;49.198;7.064;2023-10-08T13:23:58;28.80;79.70
7331;DHT22;3706;49.198;7.064;2023-10-08T13:26:28;28.70;80.20
7331;DHT22;3706;49.198;7.064;2023-10-08T13:28:57;28.70;80.30
7331;DHT22;3706;49.198;7.064;2023-10-08T13:31:26;28.70;79.80
7331;DHT22;3706;49.198;7.064;2023-10-08T13:33:54;28.70;80.10
7331;DHT22;3706;49.198;7.064;2023-10-08T13:36:23;28.60;80.10
7331;DHT22;3706;49.198;7.064;2023-10-08T13:38:50;28.40;79.80
7331;DHT22;3706;49.198;7.064;2023-10-08T13:41:17;28.20;77.90
7331;DHT22;3706;49.198;7.064;2023-10-08T13:43:45;28.10;78.60
7331;DHT22;3706;49.198;7.064;2023-10-08T13:46:13;27.90;78.50
7331;DHT22;3706;49.198;7.064;2023-10-08T13:48:43;27.70;79.80
7331;DHT22;3706;49.198;7.064;2023-10-08T13:51:12;27.60;80.30
7331;DHT22;3706;49.198;7.064;2023-10-08T13:53:40;27.40;79.90
7331;DHT22;3706;49.198;7.064;2023-10-08T13:56:11;27.30;79.70
7331;DHT22;3706;49.198;7.064;2023-10-08T13:58:39;27.20;81.70
7331;DHT22;3706;49.198;7.064;2023-10-08T14:01:11;27.10;82.00
7331;DHT22;3706;49.198;7.064;2023-10-08T14:03:47;26.80;83.90
7331;DHT22;3706;49.198;7.064;2023-10-08T14:06:14;26.40;84.60
7331;DHT22;3706;49.198;7.064;2023-10-08T14:08:42;26.10;84.40
7331;DHT22;3706;49.198;7.064;2023-10-08T14:11:17;25.80;84.60
7331;DHT22;3706;49.198;7.064;2023-10-08T14:13:44;25.50;85.70
7331;DHT22;3706;49.198;7.064;2023-10-08T14:16:13;25.30;86.50
7331;DHT22;3706;49.198;7.064;2023-10-08T14:18:43;25.00;87.40
7331;DHT22;3706;49.198;7.064;2023-10-08T14:21:17;24.70;86.00
7331;DHT22;3706;49.198;7.064;2023-10-08T14:23:44;24.50;87.90
7331;DHT22;3706;49.198;7.064;2023-10-08T14:26:12;24.30;88.90
7331;DHT22;3706;49.198;7.064;2023-10-08T14:28:41;24.10;89.60
7331;DHT22;3706;49.198;7.064;2023-10-08T14:31:10;23.90;89.50
7331;DHT22;3706;49.198;7.064;2023-10-08T14:33:41;23.80;89.50
7331;DHT22;3706;49.198;7.064;2023-10-08T14:36:22;23.70;90.10
7331;DHT22;3706;49.198;7.064;2023-10-08T14:39:07;23.50;90.40
7331;DHT22;3706;49.198;7.064;2023-10-08T14:41:51;23.40;90.50
7331;DHT22;3706;49.198;7.064;2023-10-08T14:44:36;23.30;90.60
7331;DHT22;3706;49.198;7.064;2023-10-08T14:47:04;23.10;91.00
7331;DHT22;3706;49.198;7.064;2023-10-08T14:49:31;23.00;91.50
7331;DHT22;3706;49.198;7.064;2023-10-08T14:52:00;22.90;91.80
7331;DHT22;3706;49.198;7.064;2023-10-08T14:54:29;22.70;92.20
7331;DHT22;3706;49.198;7.064;2023-10-08T14:56:57;22.60;92.60
7331;DHT22;3706;49.198;7.064;2023-10-08T14:59:24;22.50;93.00
7331;DHT22;3706;49.198;7.064;2023-10-08T15:01:53;22.40;93.50
7331;DHT22;3706;49.198;7.064;2023-10-08T15:04:21;22.30;93.80
7331;DHT22;3706;49.198;7.064;2023-10-08T15:06:48;22.20;94.20
7331;DHT22;3706;49.198;7.064;2023-10-08T15:09:16;22.20;94.30
7331;DHT22;3706;49.198;7.064;2023-10-08T15:11:47;22.10;94.50
7331;DHT22;3706;49.198;7.064;2023-10-08T15:14:13;22.00;94.90
7331;DHT22;3706;49.198;7.064;2023-10-08T15:16:41;21.90;95.10
7331;DHT22;3706;49.198;7.064;2023-10-08T15:19:12;21.80;95.30
7331;DHT22;3706;49.198;7.064;2023-10-08T15:21:41;21.70;95.50
7331;DHT22;3706;49.198;7.064;2023-10-08T15:24:09;21.60;95.40
7331;DHT22;3706;49.198;7.064;2023-10-08T15:26:40;21.50;95.80
7331;DHT22;3706;49.198;7.064;2023-10-08T15:29:07;21.40;96.10
7331;DHT22;3706;49.198;7.064;2023-10-08T15:31:35;21.30;96.60
7331;DHT22;3706;49.198;7.064;2023-10-08T15:34:02;21.20;97.10
7331;DHT22;3706;49.198;7.064;2023-10-08T15:36:30;21.00;97.60
7331;DHT22;3706;49.198;7.064;2023-10-08T15:38:57;20.90;98.00
7331;DHT22;3706;49.198;7.064;2023-10-08T15:41:24;20.80;98.00
7331;DHT22;3706;49.198;7.064;2023-10-08T15:43:53;20.80;98.10
7331;DHT22;3706;49.198;7.064;2023-10-08T15:46:24;20.70;98.10
7331;DHT22;3706;49.198;7.064;2023-10-08T15:48:51;20.60;98.30
7331;DHT22;3706;49.198;7.064;2023-10-08T15:51:18;20.60;98.70
7331;DHT22;3706;49.198;7.064;2023-10-08T15:53:45;20.50;99.30
7331;DHT22;3706;49.198;7.064;2023-10-08T15:56:12;20.40;99.70
7331;DHT22;3706;49.198;7.064;2023-10-08T15:58:39;20.30;99.90
7331;DHT22;3706;49.198;7.064;2023-10-08T16:01:08;20.20;99.90
7331;DHT22;3706;49.198;7.064;2023-10-08T16:03:37;20.10;99.90
7331;DHT22;3706;49.198;7.064;2023-10-08T16:06:04;19.90;99.90
7331;DHT22;3706;49.198;7.064;2023-10-08T16:08:31;19.80;99.90
7331;DHT22;3706;49.198;7.064;2023-10-08T16:10:58;19.70;99.90
7331;DHT22;3706;49.198;7.064;2023-10-08T16:13:25;19.50;99.90
7331;DHT22;3706;49.198;7.064;2023-10-08T16:15:52;19.40;99.90
7331;DHT22;3706;49.198;7.064;2023-10-08T16:18:20;19.30;99.90
7331;DHT22;3706;49.198;7.064;2023-10-08T16:20:47;19.10;99.90
7331;DHT22;3706;49.198;7.064;2023-10-08T16:23:14;19.00;99.90
7331;DHT22;3706;49.198;7.064;2023-10-08T16:25:42;18.80;99.90
7331;DHT22;3706;49.198;7.064;2023-10-08T16:28:10;18.60;99.90
7331;DHT22;3706;49.198;7.064;2023-10-08T16:30:38;18.50;99.90
7331;DHT22;3706;49.198;7.064;2023-10-08T16:33:05;18.30;99.90